Time;durP1;ratioP1;P1;durP2;ratioP2;P2;SDS_P1;SDS_P2;PMS_P1;PMS_P2;Temp;Humidity;BMP_temperature;BMP_pressure;BME280_temperature;BME280_humidity;BME280_pressure;Samples;Min_cycle;Max_cycle;Signal;HPM_P1;HPM_P2
2021/05/12 00:01:17;;;;;;;4.47;4.00;;;12.70;99.90;;;;;;4975030;28;20942;-91
2021/05/12 00:03:43;;;;;;;4.53;4.13;;;12.60;99.90;;;;;;4972489;28;20279;-91
2021/05/12 00:06:09;;;;;;;4.07;3.67;;;12.60;99.90;;;;;;4974702;28;20692;-91
2021/05/12 00:08:34;;;;;;;3.40;3.17;;;12.60;99.90;;;;;;4975965;28;20217;-91
2021/05/12 00:11:00;;;;;;;3.57;3.27;;;12.70;99.90;;;;;;4974989;28;20187;-91
2021/05/12 00:13:26;;;;;;;3.73;3.43;;;12.70;99.90;;;;;;4975277;28;20219;-91
2021/05/12 00:15:52;;;;;;;3.93;3.60;;;12.60;99.90;;;;;;4972898;28;20213;-91
2021/05/12 00:18:22;;;;;;;5.30;4.03;;;12.70;99.90;;;;;;4973559;28;20256;-91
2021/05/12 00:20:49;;;;;;;4.00;3.10;;;12.70;99.90;;;;;;4970858;28;20212;-90
2021/05/12 00:23:22;;;;;;;4.47;4.07;;;12.60;99.90;;;;;;4974147;28;20192;-91
2021/05/12 00:25:48;;;;;;;3.60;3.30;;;12.60;99.90;;;;;;4973664;28;20205;-91
2021/05/12 00:28:14;;;;;;;4.60;3.47;;;12.60;99.90;;;;;;4974414;28;20176;-91
2021/05/12 00:30:39;;;;;;;5.00;3.60;;;12.50;99.90;;;;;;4973315;28;20266;-91
2021/05/12 00:33:05;;;;;;;3.57;3.27;;;12.50;99.90;;;;;;4973445;28;20200;-91
2021/05/12 00:35:31;;;;;;;3.70;3.40;;;12.50;99.90;;;;;;4973795;28;20263;-91
2021/05/12 00:37:57;;;;;;;4.23;3.10;;;12.50;99.90;;;;;;4971613;28;20196;-90
2021/05/12 00:40:23;;;;;;;3.67;3.20;;;12.50;99.90;;;;;;4974542;28;20916;-90
2021/05/12 00:42:49;;;;;;;4.30;3.17;;;12.50;99.90;;;;;;4973605;28;20241;-90
2021/05/12 00:45:21;;;;;;;6.80;2.80;;;12.40;99.90;;;;;;4973059;28;20217;-90
2021/05/12 00:47:48;;;;;;;5.17;2.93;;;12.50;99.90;;;;;;4974070;28;20813;-91
2021/05/12 00:50:19;;;;;;;3.60;3.23;;;12.40;99.90;;;;;;4973947;28;20197;-90
2021/05/12 00:52:45;;;;;;;4.07;3.00;;;12.40;99.90;;;;;;4973902;28;20193;-90
2021/05/12 00:55:11;;;;;;;3.63;2.83;;;12.40;99.90;;;;;;4972553;28;20247;-90
2021/05/12 00:57:37;;;;;;;3.40;3.10;;;12.40;99.90;;;;;;4973672;28;20185;-90
2021/05/12 01:00:08;;;;;;;3.10;2.77;;;12.50;99.90;;;;;;4973494;28;20748;-90
2021/05/12 01:02:34;;;;;;;3.33;2.70;;;12.40;99.90;;;;;;4972160;28;20188;-91
2021/05/12 01:05:00;;;;;;;3.13;2.83;;;12.30;99.90;;;;;;4974059;28;20205;-90
2021/05/12 01:07:26;;;;;;;3.07;2.80;;;12.40;99.90;;;;;;4973911;28;20737;-90
2021/05/12 01:09:52;;;;;;;3.00;2.80;;;12.30;99.90;;;;;;4971821;28;20205;-90
2021/05/12 01:12:18;;;;;;;5.40;3.17;;;12.30;99.90;;;;;;4972961;28;20712;-90
2021/05/12 01:14:44;;;;;;;4.63;3.10;;;12.30;99.90;;;;;;4972889;28;20224;-90
2021/05/12 01:17:11;;;;;;;6.43;3.23;;;12.30;99.90;;;;;;4954091;28;20713;-90
2021/05/12 01:19:38;;;;;;;3.70;3.00;;;12.40;99.90;;;;;;4971683;28;20219;-90
2021/05/12 01:22:04;;;;;;;5.10;3.10;;;12.30;99.90;;;;;;4973032;28;20185;-90
2021/05/12 01:24:30;;;;;;;3.40;3.10;;;12.30;99.90;;;;;;4973092;28;20539;-89
2021/05/12 01:26:55;;;;;;;3.67;3.27;;;12.30;99.90;;;;;;4972649;28;20235;-90
2021/05/12 01:29:21;;;;;;;5.40;2.80;;;12.30;99.90;;;;;;4972837;28;20201;-90
2021/05/12 01:31:47;;;;;;;4.93;3.03;;;12.30;99.90;;;;;;4948930;28;20208;-90
2021/05/12 01:34:18;;;;;;;3.40;3.10;;;12.40;99.90;;;;;;4956865;28;20217;-91
2021/05/12 01:36:46;;;;;;;3.27;2.97;;;12.40;99.90;;;;;;4972244;28;20177;-90
2021/05/12 01:39:12;;;;;;;4.13;3.00;;;12.30;99.90;;;;;;4972148;28;20689;-90
2021/05/12 01:41:39;;;;;;;4.70;2.80;;;12.20;99.90;;;;;;4969721;28;20657;-89
2021/05/12 01:44:09;;;;;;;3.40;3.10;;;12.30;99.90;;;;;;4970946;28;20195;-90
2021/05/12 01:46:36;;;;;;;4.80;2.90;;;12.30;99.90;;;;;;4972130;28;20296;-90
2021/05/12 01:49:02;;;;;;;3.77;2.90;;;12.30;99.90;;;;;;4970661;28;20205;-90
2021/05/12 01:51:28;;;;;;;4.07;2.90;;;12.30;99.90;;;;;;4972052;28;20226;-90
2021/05/12 01:53:54;;;;;;;3.37;2.97;;;12.30;99.90;;;;;;4971835;28;20740;-90
2021/05/12 01:56:20;;;;;;;4.93;2.97;;;12.20;99.90;;;;;;4966729;28;20225;-90
2021/05/12 01:58:46;;;;;;;4.37;2.90;;;12.30;99.90;;;;;;4951907;28;20186;-90
2021/05/12 02:01:12;;;;;;;5.17;3.20;;;12.20;99.90;;;;;;4951119;29;20278;-90
2021/05/12 02:03:38;;;;;;;4.93;3.53;;;12.20;99.90;;;;;;4952081;29;20188;-90
2021/05/12 02:06:04;;;;;;;4.17;3.10;;;12.20;99.90;;;;;;4951963;29;20264;-90
2021/05/12 02:08:31;;;;;;;4.50;3.30;;;12.20;99.90;;;;;;4953257;28;20187;-90
2021/05/12 02:11:00;;;;;;;6.03;3.60;;;12.10;99.90;;;;;;4953049;28;20188;-90
2021/05/12 02:13:29;;;;;;;4.30;3.90;;;12.20;99.90;;;;;;4957362;28;20188;-89
2021/05/12 02:15:55;;;;;;;4.73;3.63;;;12.10;99.90;;;;;;4971011;28;20295;-90
2021/05/12 02:18:20;;;;;;;6.27;4.00;;;12.10;99.90;;;;;;4970910;28;20231;-90
2021/05/12 02:20:47;;;;;;;4.47;3.33;;;12.10;99.90;;;;;;4972689;28;20241;-90
2021/05/12 02:23:15;;;;;;;6.57;3.77;;;12.00;99.90;;;;;;4976056;28;20216;-90
2021/05/12 02:25:42;;;;;;;5.33;3.83;;;12.10;99.90;;;;;;4977601;28;20225;-90
2021/05/12 02:28:08;;;;;;;5.37;3.97;;;12.20;99.90;;;;;;4978664;28;20184;-89
2021/05/12 02:30:35;;;;;;;9.90;4.17;;;12.10;99.90;;;;;;4971606;28;20204;-89
2021/05/12 02:33:00;;;;;;;4.73;4.33;;;12.10;99.90;;;;;;4959970;28;20208;-90
2021/05/12 02:35:27;;;;;;;5.47;4.80;;;12.20;99.90;;;;;;4966752;28;20188;-90
2021/05/12 02:37:53;;;;;;;6.00;4.33;;;12.10;99.90;;;;;;4997529;28;20184;-89
2021/05/12 02:40:20;;;;;;;6.37;4.40;;;12.20;99.90;;;;;;4994788;28;20223;-89
2021/05/12 02:42:46;;;;;;;5.40;4.40;;;12.20;99.90;;;;;;4976632;28;20177;-89
2021/05/12 02:45:13;;;;;;;5.20;4.23;;;12.20;99.90;;;;;;4971180;28;20209;-89
2021/05/12 02:47:38;;;;;;;5.13;4.63;;;12.20;99.90;;;;;;4973142;28;20214;-89
2021/05/12 02:50:08;;;;;;;7.27;5.07;;;12.10;99.90;;;;;;4971573;28;20218;-90
2021/05/12 02:52:34;;;;;;;6.30;4.60;;;12.00;99.90;;;;;;4979894;28;20189;-89
2021/05/12 02:55:00;;;;;;;5.40;4.70;;;12.20;99.90;;;;;;4975006;28;20305;-90
2021/05/12 02:57:26;;;;;;;6.80;4.90;;;12.10;99.90;;;;;;4970770;28;20220;-90
2021/05/12 02:59:52;;;;;;;6.50;4.83;;;12.10;99.90;;;;;;4972952;28;20628;-90
2021/05/12 03:02:18;;;;;;;12.27;5.40;;;12.10;99.90;;;;;;4979959;28;20268;-90
2021/05/12 03:04:44;;;;;;;5.80;5.07;;;12.10;99.90;;;;;;4970923;28;20405;-90
2021/05/12 03:07:10;;;;;;;8.73;5.63;;;12.10;99.90;;;;;;4956640;28;20217;-90
2021/05/12 03:09:36;;;;;;;8.37;5.00;;;12.00;99.90;;;;;;4955032;28;20220;-89
2021/05/12 03:12:02;;;;;;;5.67;5.07;;;12.00;99.90;;;;;;4956699;29;20200;-89
2021/05/12 03:14:29;;;;;;;7.47;5.30;;;12.00;99.90;;;;;;4957963;28;20200;-90
2021/05/12 03:16:56;;;;;;;6.30;5.20;;;11.90;99.90;;;;;;4957450;28;20191;-91
2021/05/12 03:19:26;;;;;;;12.97;5.20;;;11.90;99.90;;;;;;4957545;28;20196;-90
2021/05/12 03:21:56;;;;;;;8.17;5.03;;;11.90;99.40;;;;;;4972990;28;20189;-89
2021/05/12 03:24:22;;;;;;;6.47;5.10;;;11.80;98.80;;;;;;4975500;28;20214;-89
2021/05/12 03:26:48;;;;;;;5.43;4.00;;;11.80;99.10;;;;;;4976324;28;20207;-89
2021/05/12 03:29:14;;;;;;;5.73;4.00;;;11.80;98.50;;;;;;4977225;28;20207;-90
2021/05/12 03:31:40;;;;;;;6.10;4.50;;;11.70;98.30;;;;;;4977182;28;20529;-90
2021/05/12 03:34:06;;;;;;;8.47;4.67;;;11.70;99.30;;;;;;4976970;28;20200;-90
2021/05/12 03:36:32;;;;;;;7.57;4.20;;;11.70;99.70;;;;;;4975902;28;20190;-90
2021/05/12 03:38:58;;;;;;;4.43;4.03;;;11.70;99.50;;;;;;4973253;28;20222;-90
2021/05/12 03:41:24;;;;;;;4.40;4.00;;;11.70;98.70;;;;;;4977011;28;20203;-90
2021/05/12 03:43:49;;;;;;;7.73;3.90;;;11.80;98.40;;;;;;4977035;28;20295;-89
2021/05/12 03:46:15;;;;;;;7.10;4.00;;;11.80;98.60;;;;;;4976807;28;20606;-90
2021/05/12 03:48:41;;;;;;;7.03;4.03;;;11.70;99.00;;;;;;4976135;28;20223;-90
2021/05/12 03:51:06;;;;;;;4.80;3.97;;;11.70;99.10;;;;;;4977617;28;20192;-90
2021/05/12 03:53:32;;;;;;;9.40;3.67;;;11.70;99.10;;;;;;4979298;28;20198;-91
2021/05/12 03:55:58;;;;;;;5.67;3.40;;;11.70;98.00;;;;;;4978209;28;20199;-90
2021/05/12 03:58:24;;;;;;;5.50;3.80;;;11.60;98.00;;;;;;4978801;28;20255;-93
2021/05/12 04:00:53;;;;;;;4.03;3.53;;;11.70;97.50;;;;;;4982567;28;20203;-92
2021/05/12 04:03:19;;;;;;;6.43;3.20;;;11.60;97.30;;;;;;4984211;28;20175;-90
2021/05/12 04:05:45;;;;;;;6.27;3.23;;;11.60;97.10;;;;;;4980743;28;20271;-90
2021/05/12 04:08:10;;;;;;;6.07;3.43;;;11.50;98.10;;;;;;4981816;28;20188;-90
2021/05/12 04:10:36;;;;;;;4.00;3.40;;;11.50;98.10;;;;;;4981900;28;20195;-90
2021/05/12 04:13:02;;;;;;;6.73;3.20;;;11.50;97.50;;;;;;4980638;28;20198;-88
2021/05/12 04:15:28;;;;;;;3.70;3.20;;;11.40;97.70;;;;;;4979900;28;20202;-89
2021/05/12 04:17:53;;;;;;;5.03;3.10;;;11.50;97.30;;;;;;4981071;28;20183;-89
2021/05/12 04:20:20;;;;;;;3.40;3.03;;;11.40;97.70;;;;;;4979714;28;20195;-90
2021/05/12 04:22:47;;;;;;;5.20;3.57;;;11.40;97.90;;;;;;4981449;28;20179;-89
2021/05/12 04:25:15;;;;;;;4.83;3.50;;;11.50;97.90;;;;;;4981368;28;20172;-88
2021/05/12 04:27:42;;;;;;;3.90;3.33;;;11.40;97.30;;;;;;4978742;28;20267;-90
2021/05/12 04:30:10;;;;;;;6.50;3.73;;;11.40;98.40;;;;;;4962388;28;20196;-90
2021/05/12 04:32:36;;;;;;;5.87;4.30;;;11.40;97.60;;;;;;4981223;28;20721;-89
2021/05/12 04:35:02;;;;;;;5.27;4.57;;;11.30;97.90;;;;;;4981084;28;20187;-88
2021/05/12 04:37:28;;;;;;;4.37;3.83;;;11.30;98.10;;;;;;4981030;28;20206;-89
2021/05/12 04:39:54;;;;;;;5.63;3.50;;;11.40;97.80;;;;;;4974837;28;20222;-89
2021/05/12 04:42:20;;;;;;;5.17;3.90;;;11.40;97.80;;;;;;4980979;28;20258;-89
2021/05/12 04:44:45;;;;;;;5.10;3.90;;;11.40;97.80;;;;;;4981566;28;20183;-89
2021/05/12 04:47:12;;;;;;;5.03;4.13;;;11.40;97.70;;;;;;4980486;28;20218;-89
2021/05/12 04:49:37;;;;;;;5.50;4.17;;;11.30;98.10;;;;;;4963040;28;20195;-89
2021/05/12 04:52:04;;;;;;;5.10;3.93;;;11.30;97.90;;;;;;4961436;28;20180;-89
2021/05/12 04:54:29;;;;;;;6.97;4.30;;;11.20;97.80;;;;;;4970965;28;20179;-89
2021/05/12 04:56:55;;;;;;;4.27;3.83;;;11.30;97.20;;;;;;4964123;28;20187;-89
2021/05/12 04:59:21;;;;;;;5.60;3.83;;;11.20;97.40;;;;;;4963138;28;20210;-89
2021/05/12 05:01:47;;;;;;;4.20;3.80;;;11.30;97.50;;;;;;4975454;28;20567;-89
2021/05/12 05:04:16;;;;;;;7.50;3.67;;;11.30;97.70;;;;;;4982372;28;20187;-90
2021/05/12 05:06:42;;;;;;;4.87;3.63;;;11.20;97.90;;;;;;4983128;28;20219;-90
2021/05/12 05:09:08;;;;;;;4.50;4.10;;;11.20;97.90;;;;;;4985026;28;20199;-89
2021/05/12 05:11:33;;;;;;;8.63;3.63;;;11.20;97.60;;;;;;4971780;28;20245;-90
2021/05/12 05:13:59;;;;;;;5.40;3.73;;;11.10;98.20;;;;;;4962105;29;20188;-89
2021/05/12 05:16:25;;;;;;;4.13;3.60;;;11.10;98.40;;;;;;4963137;29;20633;-89
2021/05/12 05:18:51;;;;;;;4.87;3.70;;;11.10;98.60;;;;;;4963688;28;20226;-90
2021/05/12 05:21:17;;;;;;;4.03;3.53;;;11.20;97.80;;;;;;4962177;28;20199;-89
2021/05/12 05:23:43;;;;;;;3.43;3.13;;;11.20;97.30;;;;;;4962138;29;20215;-89
2021/05/12 05:26:09;;;;;;;4.17;3.57;;;11.30;97.10;;;;;;4957272;28;20218;-88
2021/05/12 05:28:35;;;;;;;4.10;3.13;;;11.30;96.80;;;;;;4958243;28;20259;-90
2021/05/12 05:31:01;;;;;;;5.00;3.10;;;11.30;97.90;;;;;;4961026;28;20224;-89
2021/05/12 05:33:26;;;;;;;3.50;3.13;;;11.20;97.50;;;;;;4970870;28;20179;-90
2021/05/12 05:35:52;;;;;;;3.87;3.43;;;11.30;97.40;;;;;;4972365;28;20291;-90
2021/05/12 05:38:19;;;;;;;3.70;3.17;;;11.20;98.30;;;;;;4973320;28;20213;-91
2021/05/12 05:40:45;;;;;;;4.43;3.20;;;11.30;96.70;;;;;;4976797;28;20210;-90
2021/05/12 05:43:10;;;;;;;4.10;2.93;;;11.30;96.70;;;;;;4965392;28;20184;-90
2021/05/12 05:45:45;;;;;;;2.80;2.60;;;11.30;96.90;;;;;;4964234;28;20247;-90
2021/05/12 05:48:11;;;;;;;3.20;2.80;;;11.30;96.30;;;;;;4972668;28;20171;-90
2021/05/12 05:50:37;;;;;;;3.17;2.40;;;11.20;96.30;;;;;;4969536;28;20211;-89
2021/05/12 05:53:03;;;;;;;4.10;2.90;;;11.20;96.40;;;;;;4969718;28;20191;-89
2021/05/12 05:55:29;;;;;;;4.77;3.10;;;11.20;96.90;;;;;;4968936;28;20196;-90
2021/05/12 05:57:55;;;;;;;3.90;3.50;;;11.20;96.80;;;;;;4969297;28;20202;-91
2021/05/12 06:00:22;;;;;;;3.03;2.70;;;11.20;97.70;;;;;;4967943;28;20207;-89
2021/05/12 06:02:48;;;;;;;3.70;2.70;;;11.20;96.90;;;;;;4969054;28;20666;-90
2021/05/12 06:05:13;;;;;;;3.93;3.10;;;11.20;96.40;;;;;;4970553;28;20188;-90
2021/05/12 06:07:40;;;;;;;3.13;2.60;;;11.20;97.20;;;;;;4964436;28;20223;-90
2021/05/12 06:10:08;;;;;;;3.83;2.80;;;11.20;97.00;;;;;;4966617;28;20211;-90
2021/05/12 06:12:34;;;;;;;2.80;2.50;;;11.20;96.90;;;;;;4966411;29;20672;-90
2021/05/12 06:15:00;;;;;;;4.57;2.80;;;11.20;96.70;;;;;;4963483;28;20219;-90
2021/05/12 06:17:26;;;;;;;5.43;2.90;;;11.20;96.90;;;;;;4963435;29;20775;-90
2021/05/12 06:19:53;;;;;;;3.23;2.93;;;11.20;97.50;;;;;;4970234;28;20210;-89
2021/05/12 06:22:19;;;;;;;3.07;2.70;;;11.20;97.10;;;;;;4984970;28;20171;-90
2021/05/12 06:24:45;;;;;;;2.90;2.33;;;11.20;96.30;;;;;;4984056;28;20273;-90
2021/05/12 06:27:11;;;;;;;5.30;2.97;;;11.10;96.90;;;;;;4979401;28;20250;-90
2021/05/12 06:29:38;;;;;;;3.07;2.30;;;11.20;96.70;;;;;;4982699;28;20942;-89
2021/05/12 06:32:06;;;;;;;4.50;2.53;;;11.30;96.50;;;;;;4986206;28;20183;-89
2021/05/12 06:34:33;;;;;;;3.13;2.60;;;11.20;96.20;;;;;;4983130;28;20187;-89
2021/05/12 06:36:59;;;;;;;6.73;3.10;;;11.20;95.70;;;;;;4978038;28;20188;-88
2021/05/12 06:39:25;;;;;;;3.40;2.40;;;11.20;96.40;;;;;;4974213;28;20575;-89
2021/05/12 06:41:51;;;;;;;3.87;3.03;;;11.10;97.30;;;;;;4967471;28;20259;-89
2021/05/12 06:44:17;;;;;;;6.70;2.47;;;11.20;96.30;;;;;;4982322;28;20191;-88
2021/05/12 06:46:43;;;;;;;5.97;2.87;;;11.20;96.70;;;;;;4976498;28;20251;-89
2021/05/12 06:49:08;;;;;;;5.97;2.70;;;11.20;96.70;;;;;;4981375;28;20210;-90
2021/05/12 06:51:34;;;;;;;3.13;2.17;;;11.30;95.60;;;;;;4975469;28;20198;-89
2021/05/12 06:54:00;;;;;;;3.67;2.63;;;11.30;95.90;;;;;;4968074;28;20558;-89
2021/05/12 06:56:26;;;;;;;4.63;2.43;;;11.30;95.20;;;;;;4978188;28;20256;-88
2021/05/12 06:58:52;;;;;;;5.60;2.67;;;11.30;95.80;;;;;;4980667;28;20967;-89
2021/05/12 07:01:17;;;;;;;3.97;2.20;;;11.20;95.70;;;;;;4975906;28;20191;-89
2021/05/12 07:03:44;;;;;;;3.57;2.37;;;11.20;96.00;;;;;;4974123;28;20194;-89
2021/05/12 07:06:10;;;;;;;4.67;2.40;;;11.30;96.50;;;;;;4977596;28;20226;-88
2021/05/12 07:08:37;;;;;;;3.53;2.37;;;11.20;97.00;;;;;;4979540;28;20187;-89
2021/05/12 07:11:04;;;;;;;5.53;2.40;;;11.10;97.40;;;;;;4971767;28;20265;-90
2021/05/12 07:13:29;;;;;;;3.63;2.67;;;11.10;97.00;;;;;;4983895;28;20197;-89
2021/05/12 07:15:55;;;;;;;3.13;2.20;;;11.20;97.30;;;;;;4977927;28;20210;-89
2021/05/12 07:18:21;;;;;;;4.17;2.47;;;11.30;96.70;;;;;;4974123;28;20200;-90
2021/05/12 07:20:47;;;;;;;3.83;2.87;;;11.20;97.60;;;;;;4986103;28;20207;-89
2021/05/12 07:23:23;;;;;;;2.70;2.43;;;11.20;96.40;;;;;;4969557;28;20219;-88
2021/05/12 07:25:50;;;;;;;2.33;2.13;;;11.30;96.70;;;;;;4983396;28;20183;-89
2021/05/12 07:28:17;;;;;;;3.03;2.50;;;11.20;96.10;;;;;;4990606;28;20384;-88
2021/05/12 07:30:44;;;;;;;4.57;2.90;;;11.10;97.50;;;;;;4984342;28;20206;-90
2021/05/12 07:33:10;;;;;;;2.80;2.00;;;11.20;96.60;;;;;;4982474;28;20285;-88
2021/05/12 07:35:35;;;;;;;3.53;2.40;;;11.30;96.10;;;;;;4987885;28;20199;-89
2021/05/12 07:38:01;;;;;;;3.30;2.20;;;11.20;95.90;;;;;;4980693;28;20199;-91
2021/05/12 07:40:33;;;;;;;4.27;2.60;;;11.20;95.40;;;;;;4980325;28;20698;-88
2021/05/12 07:43:05;;;;;;;4.07;2.63;;;11.20;96.70;;;;;;4971298;28;20203;-89
2021/05/12 07:45:42;;;;;;;;;;;;;;;;;;;;;
2021/05/12 07:48:12;;;;;;;5.63;2.80;;;11.30;95.80;;;;;;4961290;28;20205;-89
2021/05/12 07:50:39;;;;;;;4.40;2.70;;;11.30;95.90;;;;;;4967329;28;20842;-90
2021/05/12 07:53:06;;;;;;;3.53;2.67;;;11.30;96.20;;;;;;4967066;28;20273;-90
2021/05/12 07:55:33;;;;;;;5.10;2.93;;;11.30;95.20;;;;;;4972827;28;20190;-89
2021/05/12 07:57:59;;;;;;;6.70;2.90;;;11.30;96.00;;;;;;4982694;28;20290;-90
2021/05/12 08:00:24;;;;;;;7.03;2.80;;;11.30;96.10;;;;;;4964661;28;20246;-89
2021/05/12 08:02:50;;;;;;;2.90;2.50;;;11.40;95.90;;;;;;4970141;28;20183;-90
2021/05/12 08:05:16;;;;;;;3.93;2.67;;;11.40;94.80;;;;;;4990905;28;20203;-90
2021/05/12 08:07:42;;;;;;;5.23;3.30;;;11.40;95.30;;;;;;4967351;28;20231;-90
2021/05/12 08:10:08;;;;;;;5.07;3.27;;;11.40;95.80;;;;;;4982611;28;20265;-90
2021/05/12 08:12:34;;;;;;;3.63;2.60;;;11.50;95.10;;;;;;4973575;28;20191;-91
2021/05/12 08:15:01;;;;;;;4.97;3.90;;;11.40;95.60;;;;;;4978947;28;20206;-91
2021/05/12 08:17:26;;;;;;;3.60;3.00;;;11.50;95.90;;;;;;4971901;28;20222;-91
2021/05/12 08:19:53;;;;;;;6.10;3.30;;;11.50;96.10;;;;;;4962344;28;20230;-91
2021/05/12 08:22:19;;;;;;;4.83;3.03;;;11.60;95.60;;;;;;4965695;28;20638;-91
2021/05/12 08:24:45;;;;;;;4.87;3.30;;;11.50;96.20;;;;;;4966313;28;20837;-90
2021/05/12 08:27:10;;;;;;;3.03;2.73;;;11.60;95.60;;;;;;4966584;28;20246;-90
2021/05/12 08:29:37;;;;;;;4.13;3.10;;;11.50;96.50;;;;;;4973093;28;20214;-91
2021/05/12 08:32:05;;;;;;;5.20;2.87;;;11.60;95.80;;;;;;4970108;28;20194;-91
2021/05/12 08:34:32;;;;;;;7.37;4.40;;;11.60;95.20;;;;;;4968376;28;20659;-91
2021/05/12 08:36:58;;;;;;;3.63;3.10;;;11.70;95.50;;;;;;4964383;28;20684;-91
2021/05/12 08:39:24;;;;;;;4.80;3.00;;;11.70;95.80;;;;;;4970782;28;20207;-91
2021/05/12 08:41:51;;;;;;;7.07;5.43;;;11.70;95.40;;;;;;4969230;28;20198;-91
2021/05/12 08:44:17;;;;;;;5.53;3.30;;;11.80;96.20;;;;;;4986234;28;20275;-91
2021/05/12 08:46:44;;;;;;;3.43;2.90;;;12.00;95.90;;;;;;4980059;28;20230;-90
2021/05/12 08:49:10;;;;;;;3.97;3.40;;;12.00;94.30;;;;;;4967299;28;20199;-89
2021/05/12 08:51:39;;;;;;;4.03;3.30;;;12.00;94.30;;;;;;4970957;28;20198;-89
2021/05/12 08:54:06;;;;;;;5.20;3.10;;;12.00;93.40;;;;;;4975997;28;20183;-89
2021/05/12 08:56:32;;;;;;;5.50;3.20;;;12.00;93.80;;;;;;4980877;28;20190;-89
2021/05/12 08:58:59;;;;;;;3.93;3.40;;;11.90;93.70;;;;;;4990381;28;20301;-89
2021/05/12 09:01:25;;;;;;;5.10;3.37;;;11.90;94.70;;;;;;4969232;28;20215;-88
2021/05/12 09:03:51;;;;;;;4.50;3.33;;;11.90;94.90;;;;;;4980239;28;20251;-89
2021/05/12 09:06:18;;;;;;;4.80;3.90;;;11.90;95.00;;;;;;4974871;28;20200;-89
2021/05/12 09:08:46;;;;;;;5.13;3.60;;;11.90;94.10;;;;;;4984586;28;20274;-89
2021/05/12 09:11:12;;;;;;;4.27;3.40;;;12.00;95.40;;;;;;4986073;28;20283;-88
2021/05/12 09:13:39;;;;;;;7.17;5.17;;;12.00;94.80;;;;;;4975145;28;20294;-88
2021/05/12 09:18:37;;;;;;;7.27;3.37;;;12.00;93.90;;;;;;5026720;28;20752;-89
2021/05/12 09:21:03;;;;;;;5.07;3.40;;;12.10;93.80;;;;;;5027356;28;20240;-88
2021/05/12 09:23:38;;;;;;;5.67;3.70;;;12.10;92.30;;;;;;5011972;28;20270;-90
2021/05/12 09:26:11;;;;;;;4.63;3.70;;;12.20;91.30;;;;;;5025365;28;20215;-87
2021/05/12 09:28:37;;;;;;;3.73;3.20;;;12.30;92.50;;;;;;5021288;28;20206;-88
2021/05/12 09:31:14;;;;;;;5.23;3.20;;;12.30;91.20;;;;;;5032852;28;20182;-88
2021/05/12 09:33:45;;;;;;;5.90;4.20;;;12.40;91.20;;;;;;5034868;28;20191;-88
2021/05/12 09:36:24;;;;;;;4.07;3.33;;;12.50;89.60;;;;;;5022887;28;20600;-88
2021/05/12 09:38:54;;;;;;;3.53;3.20;;;12.50;90.80;;;;;;5028776;28;20654;-88
2021/05/12 09:41:31;;;;;;;5.13;3.03;;;12.40;90.90;;;;;;5027379;28;20184;-89
2021/05/12 09:43:57;;;;;;;5.50;3.37;;;12.40;92.00;;;;;;5029104;28;20183;-88
2021/05/12 09:46:25;;;;;;;3.73;3.43;;;12.50;92.00;;;;;;5028993;28;20688;-89
2021/05/12 09:49:00;;;;;;;4.80;3.37;;;12.60;91.70;;;;;;5028881;28;20227;-89
2021/05/12 09:51:48;;;;;;;3.37;3.00;;;12.80;90.60;;;;;;5028603;28;20190;-90
2021/05/12 09:54:20;;;;;;;5.83;3.27;;;12.70;89.80;;;;;;5028438;28;20180;-91
2021/05/12 09:56:57;;;;;;;6.10;3.83;;;13.00;89.60;;;;;;5028733;28;20193;-90
2021/05/12 09:59:27;;;;;;;5.27;3.33;;;13.10;88.60;;;;;;5032178;28;20207;-90
2021/05/12 10:01:55;;;;;;;4.80;3.33;;;13.10;84.50;;;;;;5028297;28;20191;-90
2021/05/12 10:04:37;;;;;;;15.37;13.03;;;13.30;84.50;;;;;;5024832;28;20192;-90
2021/05/12 10:07:20;;;;;;;6.87;4.00;;;13.40;82.40;;;;;;5027344;28;20216;-89
2021/05/12 10:09:48;;;;;;;4.50;3.67;;;13.30;83.60;;;;;;5029390;28;20212;-89
2021/05/12 10:12:27;;;;;;;4.20;3.47;;;13.50;83.40;;;;;;5038610;28;20208;-89
2021/05/12 10:14:56;;;;;;;6.03;3.47;;;13.50;83.90;;;;;;5046697;28;20184;-89
2021/05/12 10:17:23;;;;;;;3.73;3.30;;;13.50;86.30;;;;;;5044052;28;20203;-90
2021/05/12 10:19:49;;;;;;;7.43;4.73;;;13.50;84.40;;;;;;5042339;28;20212;-91
2021/05/12 10:22:17;;;;;;;3.60;3.30;;;13.70;82.20;;;;;;5034885;28;20195;-90
2021/05/12 10:24:45;;;;;;;4.33;3.43;;;13.80;82.10;;;;;;5034568;28;20234;-91
2021/05/12 10:27:22;;;;;;;4.70;3.50;;;13.80;81.00;;;;;;5040385;28;20220;-91
2021/05/12 10:29:51;;;;;;;3.83;3.23;;;14.00;81.50;;;;;;5040938;28;20229;-90
2021/05/12 10:32:21;;;;;;;5.03;3.60;;;14.00;81.10;;;;;;5054983;28;20188;-91
2021/05/12 10:34:49;;;;;;;7.57;4.33;;;14.00;81.80;;;;;;5042249;28;20187;-90
2021/05/12 10:37:16;;;;;;;4.77;3.93;;;14.10;81.60;;;;;;5036711;28;20207;-90
2021/05/12 10:39:50;;;;;;;3.37;2.90;;;14.10;80.70;;;;;;5039022;28;20250;-89
2021/05/12 10:43:12;;;;;;;4.83;3.43;;;14.30;78.60;;;;;;5029281;28;20188;-90
2021/05/12 10:45:50;;;;;;;4.77;3.90;;;14.30;79.90;;;;;;5035089;28;20242;-88
2021/05/12 10:48:40;;;;;;;6.03;3.50;;;14.20;79.60;;;;;;5042490;28;20195;-89
2021/05/12 10:51:22;;;;;;;3.80;3.40;;;14.60;79.30;;;;;;5025532;28;20178;-89
2021/05/12 10:53:51;;;;;;;5.80;3.60;;;14.90;78.80;;;;;;5042043;28;20178;-89
2021/05/12 10:56:19;;;;;;;4.07;3.33;;;15.10;76.60;;;;;;5040099;28;20193;-89
2021/05/12 10:58:57;;;;;;;3.97;3.33;;;15.20;76.60;;;;;;5036388;28;20197;-89
2021/05/12 11:01:25;;;;;;;7.93;3.87;;;15.30;73.70;;;;;;5041633;28;20179;-89
2021/05/12 11:03:53;;;;;;;4.87;3.53;;;15.30;75.30;;;;;;5026880;28;20275;-89
2021/05/12 11:06:39;;;;;;;5.80;4.43;;;15.30;76.20;;;;;;5050048;28;20201;-89
2021/05/12 11:09:08;;;;;;;4.60;3.67;;;15.40;74.00;;;;;;5033454;28;20213;-90
2021/05/12 11:11:46;;;;;;;7.47;3.70;;;15.40;76.70;;;;;;5051056;28;20179;-90
2021/05/12 11:14:32;;;;;;;4.73;4.00;;;15.50;74.50;;;;;;5045504;28;20192;-90
2021/05/12 11:17:23;;;;;;;7.37;3.80;;;15.60;73.30;;;;;;5050138;28;20232;-90
2021/05/12 11:20:02;;;;;;;4.20;3.80;;;15.50;74.00;;;;;;5043835;28;20209;-90
2021/05/12 11:22:37;;;;;;;3.50;3.20;;;15.50;74.70;;;;;;5049330;28;20187;-90
2021/05/12 11:25:28;;;;;;;6.80;4.13;;;15.60;74.60;;;;;;5045093;28;20195;-90
2021/05/12 11:33:42;;;;;;;4.80;2.97;;;16.00;70.80;;;;;;5036091;28;20221;-92
2021/05/12 11:36:19;;;;;;;5.93;3.83;;;16.10;70.10;;;;;;5039334;28;20212;-91
2021/05/12 11:38:46;;;;;;;5.57;3.53;;;16.40;68.90;;;;;;5038685;28;20783;-91
2021/05/12 11:41:15;;;;;;;5.97;3.60;;;16.50;67.80;;;;;;5031726;28;20184;-92
2021/05/12 11:43:45;;;;;;;6.67;3.53;;;16.60;67.40;;;;;;5031195;28;20371;-92
2021/05/12 11:46:27;;;;;;;4.10;3.50;;;16.50;67.50;;;;;;5033045;28;20303;-91
2021/05/12 11:48:59;;;;;;;3.97;3.40;;;16.30;68.10;;;;;;5025128;28;20266;-90
2021/05/12 11:51:39;;;;;;;5.03;3.47;;;16.70;65.60;;;;;;5026884;28;20213;-91
2021/05/12 11:54:16;;;;;;;4.13;3.33;;;17.00;63.30;;;;;;5028878;28;20233;-92
2021/05/12 11:56:47;;;;;;;7.70;3.60;;;17.40;62.60;;;;;;5045438;28;20193;-91
2021/05/12 11:59:23;;;;;;;6.23;3.67;;;17.90;60.00;;;;;;5039034;28;20272;-92
2021/05/12 12:02:00;;;;;;;5.10;3.23;;;17.90;60.20;;;;;;5036644;28;20454;-92
2021/05/12 12:05:09;;;;;;;5.20;3.40;;;18.30;61.90;;;;;;5021064;28;20204;-91
2021/05/12 12:07:14;;;;;;;6.70;3.33;;;18.40;60.60;;;;;;5027078;28;20601;-90
2021/05/12 12:09:40;;;;;;;5.80;3.63;;;17.80;61.30;;;;;;5032585;28;20223;-91
2021/05/12 12:12:06;;;;;;;4.97;3.33;;;17.70;61.00;;;;;;5036740;28;20238;-90
2021/05/12 12:14:34;;;;;;;5.87;3.73;;;17.60;62.70;;;;;;5048714;28;20191;-90
2021/05/12 12:17:01;;;;;;;6.50;3.43;;;17.70;60.90;;;;;;5052547;28;20207;-89
2021/05/12 12:19:27;;;;;;;7.43;3.13;;;17.40;65.30;;;;;;5055489;28;20192;-89
2021/05/12 12:21:56;;;;;;;6.97;3.50;;;17.40;63.50;;;;;;5050718;28;20199;-89
2021/05/12 12:24:25;;;;;;;6.70;3.20;;;17.70;60.60;;;;;;5036334;28;20194;-88
2021/05/12 12:26:53;;;;;;;5.90;3.27;;;18.10;60.60;;;;;;5031945;28;20224;-91
2021/05/12 12:29:23;;;;;;;5.17;3.30;;;17.80;59.60;;;;;;5035668;28;20232;-91
2021/05/12 12:31:51;;;;;;;4.47;3.13;;;18.10;58.80;;;;;;5027009;28;20181;-89
2021/05/12 12:34:27;;;;;;;5.13;2.77;;;18.10;58.60;;;;;;5031476;28;20263;-89
2021/05/12 12:36:56;;;;;;;7.03;3.30;;;18.30;56.40;;;;;;5027067;28;20177;-91
2021/05/12 12:39:48;;;;;;;4.80;2.87;;;18.40;55.10;;;;;;5033497;28;20204;-90
2021/05/12 12:42:17;;;;;;;4.07;3.33;;;18.70;55.50;;;;;;5029302;28;20197;-89
2021/05/12 12:44:44;;;;;;;5.63;3.13;;;18.90;55.80;;;;;;5024440;28;20190;-90
2021/05/12 12:47:16;;;;;;;4.83;3.10;;;19.00;55.70;;;;;;5022851;28;20229;-90
2021/05/12 12:49:48;;;;;;;9.20;3.10;;;19.30;52.90;;;;;;5033297;28;20207;-90
2021/05/12 12:52:20;;;;;;;4.72;2.65;;;19.50;53.80;;;;;;5036936;28;20268;-90
2021/05/12 12:54:55;;;;;;;7.50;3.15;;;19.50;53.00;;;;;;5019829;28;20184;-90
2021/05/12 12:57:21;;;;;;;3.97;2.83;;;19.50;53.20;;;;;;5027027;28;20195;-91
2021/05/12 13:00:13;;;;;;;5.53;2.70;;;19.40;52.00;;;;;;5029971;28;20303;-90
2021/05/12 13:02:53;;;;;;;4.20;2.75;;;19.10;52.80;;;;;;5026839;28;20189;-91